sensor_id;sensor_type;location;lat;lon;timestamp;P1;durP1;ratioP1;P2;durP2;ratioP2
5519;SDS011;2782;52.362;10.012;2023-02-24T00:00:56;5.25;;;1.60;;
5519;SDS011;2782;52.362;10.012;2023-02-24T00:02:01;7.07;;;2.38;;
5519;SDS011;2782;52.362;10.012;2023-02-24T00:03:04;4.25;;;2.28;;
5519;SDS011;2782;52.362;10.012;2023-02-24T00:04:06;3.37;;;1.60;;
5519;SDS011;2782;52.362;10.012;2023-02-24T00:05:09;4.15;;;1.70;;
5519;SDS011;2782;52.362;10.012;2023-02-24T00:06:10;3.93;;;2.00;;
5519;SDS011;2782;52.362;10.012;2023-02-24T00:07:12;4.50;;;1.88;;
5519;SDS011;2782;52.362;10.012;2023-02-24T00:08:12;5.10;;;1.87;;
5519;SDS011;2782;52.362;10.012;2023-02-24T00:09:18;3.53;;;1.80;;
5519;SDS011;2782;52.362;10.012;2023-02-24T00:10:20;5.45;;;1.88;;
5519;SDS011;2782;52.362;10.012;2023-02-24T00:11:24;5.82;;;1.80;;
5519;SDS011;2782;52.362;10.012;2023-02-24T00:12:27;3.40;;;1.58;;
5519;SDS011;2782;52.362;10.012;2023-02-24T00:13:28;10.32;;;2.20;;
5519;SDS011;2782;52.362;10.012;2023-02-24T00:14:30;4.83;;;1.90;;
5519;SDS011;2782;52.362;10.012;2023-02-24T00:15:32;4.00;;;1.30;;
5519;SDS011;2782;52.362;10.012;2023-02-24T00:16:34;6.45;;;2.05;;
5519;SDS011;2782;52.362;10.012;2023-02-24T00:17:37;7.72;;;1.88;;
5519;SDS011;2782;52.362;10.012;2023-02-24T00:18:39;4.32;;;1.67;;
5519;SDS011;2782;52.362;10.012;2023-02-24T00:19:41;5.40;;;1.95;;
5519;SDS011;2782;52.362;10.012;2023-02-24T00:20:42;4.13;;;1.77;;
5519;SDS011;2782;52.362;10.012;2023-02-24T00:21:44;2.50;;;1.50;;
5519;SDS011;2782;52.362;10.012;2023-02-24T00:22:44;4.70;;;1.90;;
5519;SDS011;2782;52.362;10.012;2023-02-24T00:23:46;2.00;;;1.60;;
5519;SDS011;2782;52.362;10.012;2023-02-24T00:24:48;5.17;;;1.87;;
5519;SDS011;2782;52.362;10.012;2023-02-24T00:25:56;6.95;;;2.00;;
5519;SDS011;2782;52.362;10.012;2023-02-24T00:26:59;5.25;;;1.60;;
5519;SDS011;2782;52.362;10.012;2023-02-24T00:28:01;4.35;;;1.75;;
5519;SDS011;2782;52.362;10.012;2023-02-24T00:29:03;4.97;;;1.85;;
5519;SDS011;2782;52.362;10.012;2023-02-24T00:30:05;5.55;;;2.40;;
5519;SDS011;2782;52.362;10.012;2023-02-24T00:31:10;4.55;;;1.40;;
5519;SDS011;2782;52.362;10.012;2023-02-24T00:32:15;10.02;;;1.70;;
5519;SDS011;2782;52.362;10.012;2023-02-24T00:33:17;2.88;;;1.17;;
5519;SDS011;2782;52.362;10.012;2023-02-24T00:34:22;3.53;;;1.40;;
5519;SDS011;2782;52.362;10.012;2023-02-24T00:35:24;2.88;;;1.77;;
5519;SDS011;2782;52.362;10.012;2023-02-24T00:36:25;2.40;;;1.17;;
5519;SDS011;2782;52.362;10.012;2023-02-24T00:37:28;3.65;;;1.27;;
5519;SDS011;2782;52.362;10.012;2023-02-24T00:38:28;7.43;;;1.70;;
5519;SDS011;2782;52.362;10.012;2023-02-24T00:39:34;4.95;;;1.60;;
5519;SDS011;2782;52.362;10.012;2023-02-24T00:40:41;2.85;;;1.38;;
5519;SDS011;2782;52.362;10.012;2023-02-24T00:41:44;4.93;;;1.83;;
5519;SDS011;2782;52.362;10.012;2023-02-24T00:42:45;4.35;;;1.67;;
5519;SDS011;2782;52.362;10.012;2023-02-24T00:43:47;2.45;;;1.38;;
5519;SDS011;2782;52.362;10.012;2023-02-24T00:44:50;3.70;;;1.42;;
5519;SDS011;2782;52.362;10.012;2023-02-24T00:45:52;6.28;;;1.90;;
5519;SDS011;2782;52.362;10.012;2023-02-24T00:46:54;2.83;;;1.40;;
5519;SDS011;2782;52.362;10.012;2023-02-24T00:47:55;4.20;;;1.80;;
5519;SDS011;2782;52.362;10.012;2023-02-24T00:48:56;4.35;;;1.88;;
5519;SDS011;2782;52.362;10.012;2023-02-24T00:49:57;4.40;;;1.50;;
5519;SDS011;2782;52.362;10.012;2023-02-24T00:50:59;4.07;;;1.33;;
5519;SDS011;2782;52.362;10.012;2023-02-24T00:52:00;4.40;;;1.60;;
5519;SDS011;2782;52.362;10.012;2023-02-24T00:53:04;1.98;;;1.10;;
5519;SDS011;2782;52.362;10.012;2023-02-24T00:54:05;4.50;;;1.60;;
5519;SDS011;2782;52.362;10.012;2023-02-24T00:55:07;3.47;;;1.23;;
5519;SDS011;2782;52.362;10.012;2023-02-24T00:56:14;2.47;;;1.20;;
5519;SDS011;2782;52.362;10.012;2023-02-24T00:57:16;3.17;;;1.38;;
5519;SDS011;2782;52.362;10.012;2023-02-24T00:58:17;4.57;;;1.40;;
5519;SDS011;2782;52.362;10.012;2023-02-24T00:59:19;3.67;;;1.52;;
5519;SDS011;2782;52.362;10.012;2023-02-24T01:00:21;1.90;;;1.33;;
5519;SDS011;2782;52.362;10.012;2023-02-24T01:01:24;3.53;;;1.60;;
5519;SDS011;2782;52.362;10.012;2023-02-24T01:02:26;3.05;;;1.50;;
5519;SDS011;2782;52.362;10.012;2023-02-24T01:03:28;3.22;;;1.10;;
5519;SDS011;2782;52.362;10.012;2023-02-24T01:04:30;2.85;;;1.25;;
5519;SDS011;2782;52.362;10.012;2023-02-24T01:05:34;4.25;;;1.25;;
5519;SDS011;2782;52.362;10.012;2023-02-24T01:06:36;6.38;;;1.40;;
5519;SDS011;2782;52.362;10.012;2023-02-24T01:07:39;4.43;;;1.48;;
5519;SDS011;2782;52.362;10.012;2023-02-24T01:08:40;3.90;;;1.43;;
5519;SDS011;2782;52.362;10.012;2023-02-24T01:09:48;3.20;;;1.15;;
5519;SDS011;2782;52.362;10.012;2023-02-24T01:10:56;3.50;;;1.50;;
5519;SDS011;2782;52.362;10.012;2023-02-24T01:12:17;3.30;;;1.45;;
5519;SDS011;2782;52.362;10.012;2023-02-24T01:13:32;1.67;;;1.00;;
5519;SDS011;2782;52.362;10.012;2023-02-24T01:14:34;4.88;;;1.75;;
5519;SDS011;2782;52.362;10.012;2023-02-24T01:15:35;3.13;;;1.15;;
5519;SDS011;2782;52.362;10.012;2023-02-24T01:16:37;5.30;;;1.00;;
5519;SDS011;2782;52.362;10.012;2023-02-24T01:17:37;3.60;;;1.40;;
5519;SDS011;2782;52.362;10.012;2023-02-24T01:18:39;3.50;;;1.35;;
5519;SDS011;2782;52.362;10.012;2023-02-24T01:19:40;2.93;;;1.10;;
5519;SDS011;2782;52.362;10.012;2023-02-24T01:20:43;2.50;;;1.05;;
5519;SDS011;2782;52.362;10.012;2023-02-24T01:21:44;3.33;;;1.67;;
5519;SDS011;2782;52.362;10.012;2023-02-24T01:22:47;3.67;;;1.00;;
5519;SDS011;2782;52.362;10.012;2023-02-24T01:23:49;3.42;;;1.48;;
5519;SDS011;2782;52.362;10.012;2023-02-24T01:24:51;5.07;;;1.30;;
5519;SDS011;2782;52.362;10.012;2023-02-24T01:25:52;3.37;;;1.30;;
5519;SDS011;2782;52.362;10.012;2023-02-24T01:26:57;1.95;;;1.02;;
5519;SDS011;2782;52.362;10.012;2023-02-24T01:27:59;2.60;;;1.30;;
5519;SDS011;2782;52.362;10.012;2023-02-24T01:29:01;2.42;;;0.90;;
5519;SDS011;2782;52.362;10.012;2023-02-24T01:30:03;4.28;;;1.08;;
5519;SDS011;2782;52.362;10.012;2023-02-24T01:31:05;1.52;;;1.30;;
5519;SDS011;2782;52.362;10.012;2023-02-24T01:32:06;3.00;;;1.10;;
5519;SDS011;2782;52.362;10.012;2023-02-24T01:33:11;2.30;;;1.17;;
5519;SDS011;2782;52.362;10.012;2023-02-24T01:34:13;4.10;;;1.55;;
5519;SDS011;2782;52.362;10.012;2023-02-24T01:35:15;1.10;;;0.90;;
5519;SDS011;2782;52.362;10.012;2023-02-24T01:36:17;4.63;;;1.27;;
5519;SDS011;2782;52.362;10.012;2023-02-24T01:37:19;3.28;;;1.15;;
5519;SDS011;2782;52.362;10.012;2023-02-24T01:38:20;3.63;;;1.00;;
5519;SDS011;2782;52.362;10.012;2023-02-24T01:39:22;1.38;;;0.93;;
5519;SDS011;2782;52.362;10.012;2023-02-24T01:40:24;2.85;;;1.10;;
5519;SDS011;2782;52.362;10.012;2023-02-24T01:41:27;1.00;;;0.60;;
5519;SDS011;2782;52.362;10.012;2023-02-24T01:42:29;2.33;;;0.98;;
5519;SDS011;2782;52.362;10.012;2023-02-24T01:43:33;3.63;;;1.30;;
5519;SDS011;2782;52.362;10.012;2023-02-24T01:45:03;1.90;;;1.00;;
5519;SDS011;2782;52.362;10.012;2023-02-24T01:46:11;1.85;;;0.82;;
5519;SDS011;2782;52.362;10.012;2023-02-24T01:47:12;1.35;;;0.90;;
5519;SDS011;2782;52.362;10.012;2023-02-24T01:48:15;6.18;;;0.98;;
5519;SDS011;2782;52.362;10.012;2023-02-24T01:49:17;1.98;;;1.10;;
5519;SDS011;2782;52.362;10.012;2023-02-24T01:50:22;2.25;;;1.20;;
5519;SDS011;2782;52.362;10.012;2023-02-24T01:51:25;2.45;;;1.10;;
5519;SDS011;2782;52.362;10.012;2023-02-24T01:52:33;1.50;;;0.82;;
5519;SDS011;2782;52.362;10.012;2023-02-24T01:53:36;2.08;;;1.05;;
5519;SDS011;2782;52.362;10.012;2023-02-24T01:54:39;1.73;;;0.95;;
5519;SDS011;2782;52.362;10.012;2023-02-24T01:55:43;7.60;;;1.02;;
5519;SDS011;2782;52.362;10.012;2023-02-24T01:56:48;2.65;;;0.98;;
5519;SDS011;2782;52.362;10.012;2023-02-24T01:57:51;1.33;;;0.52;;
5519;SDS011;2782;52.362;10.012;2023-02-24T01:58:55;1.95;;;1.00;;
5519;SDS011;2782;52.362;10.012;2023-02-24T01:59:58;3.17;;;1.00;;
5519;SDS011;2782;52.362;10.012;2023-02-24T02:01:18;1.50;;;1.00;;
5519;SDS011;2782;52.362;10.012;2023-02-24T02:02:20;6.35;;;1.35;;
5519;SDS011;2782;52.362;10.012;2023-02-24T02:03:24;2.25;;;1.20;;
5519;SDS011;2782;52.362;10.012;2023-02-24T02:04:30;6.20;;;0.80;;
5519;SDS011;2782;52.362;10.012;2023-02-24T02:05:38;3.40;;;1.33;;
5519;SDS011;2782;52.362;10.012;2023-02-24T02:06:40;1.38;;;0.80;;
5519;SDS011;2782;52.362;10.012;2023-02-24T02:07:42;2.10;;;1.13;;
5519;SDS011;2782;52.362;10.012;2023-02-24T02:08:44;1.67;;;0.70;;
5519;SDS011;2782;52.362;10.012;2023-02-24T02:09:47;1.95;;;0.80;;
5519;SDS011;2782;52.362;10.012;2023-02-24T02:10:49;5.63;;;0.73;;
5519;SDS011;2782;52.362;10.012;2023-02-24T02:11:57;2.28;;;0.82;;
5519;SDS011;2782;52.362;10.012;2023-02-24T02:12:58;1.40;;;0.80;;
5519;SDS011;2782;52.362;10.012;2023-02-24T02:14:04;2.78;;;0.82;;
5519;SDS011;2782;52.362;10.012;2023-02-24T02:15:05;1.67;;;0.73;;
5519;SDS011;2782;52.362;10.012;2023-02-24T02:16:12;2.08;;;0.70;;
5519;SDS011;2782;52.362;10.012;2023-02-24T02:17:34;1.73;;;1.10;;
5519;SDS011;2782;52.362;10.012;2023-02-24T02:18:43;3.42;;;0.80;;
5519;SDS011;2782;52.362;10.012;2023-02-24T02:21:53;2.22;;;0.82;;
5519;SDS011;2782;52.362;10.012;2023-02-24T02:23:22;2.05;;;1.23;;
5519;SDS011;2782;52.362;10.012;2023-02-24T02:24:41;3.13;;;0.70;;
5519;SDS011;2782;52.362;10.012;2023-02-24T02:25:55;1.55;;;0.75;;
5519;SDS011;2782;52.362;10.012;2023-02-24T02:27:11;1.73;;;0.77;;
5519;SDS011;2782;52.362;10.012;2023-02-24T02:28:38;1.05;;;0.80;;
5519;SDS011;2782;52.362;10.012;2023-02-24T02:30:03;2.28;;;0.75;;
5519;SDS011;2782;52.362;10.012;2023-02-24T02:34:55;3.60;;;1.05;;
5519;SDS011;2782;52.362;10.012;2023-02-24T02:36:09;0.95;;;0.52;;
5519;SDS011;2782;52.362;10.012;2023-02-24T02:37:17;0.70;;;0.65;;
5519;SDS011;2782;52.362;10.012;2023-02-24T02:38:25;1.92;;;0.70;;
5519;SDS011;2782;52.362;10.012;2023-02-24T02:39:35;3.22;;;1.00;;
5519;SDS011;2782;52.362;10.012;2023-02-24T02:40:47;1.58;;;0.95;;
5519;SDS011;2782;52.362;10.012;2023-02-24T02:41:53;3.80;;;1.42;;
5519;SDS011;2782;52.362;10.012;2023-02-24T02:43:05;1.60;;;1.02;;
5519;SDS011;2782;52.362;10.012;2023-02-24T02:44:13;1.15;;;0.73;;
5519;SDS011;2782;52.362;10.012;2023-02-24T02:45:21;1.90;;;0.80;;
5519;SDS011;2782;52.362;10.012;2023-02-24T02:46:28;1.40;;;0.68;;
5519;SDS011;2782;52.362;10.012;2023-02-24T02:47:35;2.28;;;1.00;;
5519;SDS011;2782;52.362;10.012;2023-02-24T02:48:42;1.75;;;0.57;;
5519;SDS011;2782;52.362;10.012;2023-02-24T02:49:48;2.58;;;0.70;;
5519;SDS011;2782;52.362;10.012;2023-02-24T02:50:56;2.45;;;0.70;;
5519;SDS011;2782;52.362;10.012;2023-02-24T02:52:04;2.45;;;0.82;;
5519;SDS011;2782;52.362;10.012;2023-02-24T02:53:10;1.67;;;0.40;;
5519;SDS011;2782;52.362;10.012;2023-02-24T02:54:15;1.50;;;0.60;;
5519;SDS011;2782;52.362;10.012;2023-02-24T02:55:21;2.97;;;0.55;;
5519;SDS011;2782;52.362;10.012;2023-02-24T02:56:29;1.55;;;0.93;;
5519;SDS011;2782;52.362;10.012;2023-02-24T02:57:36;2.47;;;0.60;;
5519;SDS011;2782;52.362;10.012;2023-02-24T02:58:40;1.30;;;0.90;;
5519;SDS011;2782;52.362;10.012;2023-02-24T02:59:48;2.47;;;0.88;;
5519;SDS011;2782;52.362;10.012;2023-02-24T03:00:54;1.48;;;0.65;;
5519;SDS011;2782;52.362;10.012;2023-02-24T03:02:00;1.40;;;0.60;;
5519;SDS011;2782;52.362;10.012;2023-02-24T03:03:13;2.17;;;1.27;;
5519;SDS011;2782;52.362;10.012;2023-02-24T03:04:17;2.67;;;0.77;;
5519;SDS011;2782;52.362;10.012;2023-02-24T03:05:25;2.17;;;0.77;;
5519;SDS011;2782;52.362;10.012;2023-02-24T03:06:31;1.30;;;0.30;;
5519;SDS011;2782;52.362;10.012;2023-02-24T03:07:35;5.60;;;0.70;;
5519;SDS011;2782;52.362;10.012;2023-02-24T03:08:40;2.15;;;0.63;;
5519;SDS011;2782;52.362;10.012;2023-02-24T03:09:52;1.77;;;0.88;;
5519;SDS011;2782;52.362;10.012;2023-02-24T03:10:55;2.15;;;0.73;;
5519;SDS011;2782;52.362;10.012;2023-02-24T03:12:00;1.23;;;0.50;;
5519;SDS011;2782;52.362;10.012;2023-02-24T03:13:07;1.00;;;0.55;;
5519;SDS011;2782;52.362;10.012;2023-02-24T03:14:13;0.60;;;0.40;;
5519;SDS011;2782;52.362;10.012;2023-02-24T03:15:15;1.10;;;0.65;;
5519;SDS011;2782;52.362;10.012;2023-02-24T03:16:20;0.70;;;0.50;;
5519;SDS011;2782;52.362;10.012;2023-02-24T03:17:22;1.33;;;0.73;;
5519;SDS011;2782;52.362;10.012;2023-02-24T03:18:27;1.50;;;0.60;;
5519;SDS011;2782;52.362;10.012;2023-02-24T03:19:32;1.45;;;0.73;;
5519;SDS011;2782;52.362;10.012;2023-02-24T03:20:38;1.60;;;0.70;;
5519;SDS011;2782;52.362;10.012;2023-02-24T03:21:43;2.03;;;0.70;;
5519;SDS011;2782;52.362;10.012;2023-02-24T03:22:51;2.00;;;0.50;;
5519;SDS011;2782;52.362;10.012;2023-02-24T03:23:56;0.60;;;0.40;;
5519;SDS011;2782;52.362;10.012;2023-02-24T03:24:58;1.00;;;0.50;;
5519;SDS011;2782;52.362;10.012;2023-02-24T03:26:01;0.77;;;0.40;;
5519;SDS011;2782;52.362;10.012;2023-02-24T03:27:18;1.10;;;0.40;;
5519;SDS011;2782;52.362;10.012;2023-02-24T03:28:25;1.00;;;0.40;;
5519;SDS011;2782;52.362;10.012;2023-02-24T03:29:37;0.50;;;0.30;;
5519;SDS011;2782;52.362;10.012;2023-02-24T03:30:43;2.03;;;0.47;;
5519;SDS011;2782;52.362;10.012;2023-02-24T03:31:49;1.48;;;0.55;;
5519;SDS011;2782;52.362;10.012;2023-02-24T03:32:55;1.13;;;0.40;;
5519;SDS011;2782;52.362;10.012;2023-02-24T03:34:03;1.23;;;0.50;;
5519;SDS011;2782;52.362;10.012;2023-02-24T03:35:08;1.17;;;0.30;;
5519;SDS011;2782;52.362;10.012;2023-02-24T03:36:12;1.27;;;0.50;;
5519;SDS011;2782;52.362;10.012;2023-02-24T03:37:16;0.80;;;0.60;;
5519;SDS011;2782;52.362;10.012;2023-02-24T03:38:24;2.08;;;0.50;;
5519;SDS011;2782;52.362;10.012;2023-02-24T03:39:26;2.78;;;0.70;;
5519;SDS011;2782;52.362;10.012;2023-02-24T03:40:26;2.20;;;0.50;;
5519;SDS011;2782;52.362;10.012;2023-02-24T03:41:36;0.98;;;0.70;;
5519;SDS011;2782;52.362;10.012;2023-02-24T03:42:44;1.15;;;0.40;;
5519;SDS011;2782;52.362;10.012;2023-02-24T03:43:48;0.85;;;0.50;;
5519;SDS011;2782;52.362;10.012;2023-02-24T03:44:50;1.08;;;0.55;;
5519;SDS011;2782;52.362;10.012;2023-02-24T03:45:52;0.90;;;0.45;;
5519;SDS011;2782;52.362;10.012;2023-02-24T03:46:54;1.08;;;0.40;;
5519;SDS011;2782;52.362;10.012;2023-02-24T03:47:56;0.63;;;0.40;;
5519;SDS011;2782;52.362;10.012;2023-02-24T03:49:00;0.80;;;0.45;;
5519;SDS011;2782;52.362;10.012;2023-02-24T03:50:11;0.82;;;0.47;;
5519;SDS011;2782;52.362;10.012;2023-02-24T03:51:14;1.55;;;0.52;;
5519;SDS011;2782;52.362;10.012;2023-02-24T03:52:21;3.13;;;0.35;;
5519;SDS011;2782;52.362;10.012;2023-02-24T03:53:33;1.52;;;0.77;;
5519;SDS011;2782;52.362;10.012;2023-02-24T03:54:44;1.13;;;0.40;;
5519;SDS011;2782;52.362;10.012;2023-02-24T03:55:55;0.70;;;0.40;;
5519;SDS011;2782;52.362;10.012;2023-02-24T03:57:07;0.90;;;0.55;;
5519;SDS011;2782;52.362;10.012;2023-02-24T03:58:23;0.85;;;0.38;;
5519;SDS011;2782;52.362;10.012;2023-02-24T03:59:33;0.70;;;0.50;;
5519;SDS011;2782;52.362;10.012;2023-02-24T04:00:45;1.27;;;0.52;;
5519;SDS011;2782;52.362;10.012;2023-02-24T04:01:53;0.82;;;0.40;;
5519;SDS011;2782;52.362;10.012;2023-02-24T04:02:57;1.23;;;0.60;;
5519;SDS011;2782;52.362;10.012;2023-02-24T04:04:04;1.20;;;0.50;;
5519;SDS011;2782;52.362;10.012;2023-02-24T04:05:14;1.10;;;0.38;;
5519;SDS011;2782;52.362;10.012;2023-02-24T04:06:20;1.25;;;0.30;;
5519;SDS011;2782;52.362;10.012;2023-02-24T04:07:33;1.70;;;0.60;;
5519;SDS011;2782;52.362;10.012;2023-02-24T04:08:40;1.48;;;0.88;;
5519;SDS011;2782;52.362;10.012;2023-02-24T04:09:46;1.20;;;0.60;;
5519;SDS011;2782;52.362;10.012;2023-02-24T04:10:57;2.50;;;0.50;;
5519;SDS011;2782;52.362;10.012;2023-02-24T04:12:06;1.40;;;0.30;;
5519;SDS011;2782;52.362;10.012;2023-02-24T04:13:14;0.60;;;0.38;;
5519;SDS011;2782;52.362;10.012;2023-02-24T04:14:21;0.95;;;0.50;;
5519;SDS011;2782;52.362;10.012;2023-02-24T04:15:28;1.25;;;0.47;;
5519;SDS011;2782;52.362;10.012;2023-02-24T04:16:33;3.10;;;0.65;;
5519;SDS011;2782;52.362;10.012;2023-02-24T04:17:39;1.58;;;0.35;;
5519;SDS011;2782;52.362;10.012;2023-02-24T04:18:44;1.05;;;0.40;;
5519;SDS011;2782;52.362;10.012;2023-02-24T04:19:49;2.35;;;0.50;;
5519;SDS011;2782;52.362;10.012;2023-02-24T04:20:54;0.95;;;0.40;;
5519;SDS011;2782;52.362;10.012;2023-02-24T04:21:58;1.20;;;0.30;;
5519;SDS011;2782;52.362;10.012;2023-02-24T04:23:03;1.45;;;0.50;;
5519;SDS011;2782;52.362;10.012;2023-02-24T04:24:08;2.00;;;0.57;;
5519;SDS011;2782;52.362;10.012;2023-02-24T04:25:15;0.70;;;0.40;;
5519;SDS011;2782;52.362;10.012;2023-02-24T04:26:18;0.70;;;0.30;;
5519;SDS011;2782;52.362;10.012;2023-02-24T04:27:21;1.52;;;0.50;;
5519;SDS011;2782;52.362;10.012;2023-02-24T04:28:24;0.85;;;0.43;;
5519;SDS011;2782;52.362;10.012;2023-02-24T04:29:27;0.80;;;0.40;;
5519;SDS011;2782;52.362;10.012;2023-02-24T04:30:35;2.80;;;0.40;;
5519;SDS011;2782;52.362;10.012;2023-02-24T04:31:39;1.10;;;0.45;;
5519;SDS011;2782;52.362;10.012;2023-02-24T04:32:41;0.70;;;0.22;;
5519;SDS011;2782;52.362;10.012;2023-02-24T04:33:42;1.00;;;0.40;;
5519;SDS011;2782;52.362;10.012;2023-02-24T04:34:49;1.45;;;0.38;;
5519;SDS011;2782;52.362;10.012;2023-02-24T04:35:49;0.67;;;0.30;;
5519;SDS011;2782;52.362;10.012;2023-02-24T04:36:52;2.17;;;0.40;;
5519;SDS011;2782;52.362;10.012;2023-02-24T04:37:53;1.73;;;0.50;;
5519;SDS011;2782;52.362;10.012;2023-02-24T04:38:56;1.65;;;0.63;;
5519;SDS011;2782;52.362;10.012;2023-02-24T04:39:57;0.80;;;0.50;;
5519;SDS011;2782;52.362;10.012;2023-02-24T04:40:59;0.70;;;0.40;;
5519;SDS011;2782;52.362;10.012;2023-02-24T04:42:00;1.07;;;0.40;;
5519;SDS011;2782;52.362;10.012;2023-02-24T04:43:01;1.30;;;0.60;;
5519;SDS011;2782;52.362;10.012;2023-02-24T04:44:02;1.67;;;0.40;;
5519;SDS011;2782;52.362;10.012;2023-02-24T04:45:04;1.90;;;0.70;;
5519;SDS011;2782;52.362;10.012;2023-02-24T04:46:08;7.28;;;0.55;;
5519;SDS011;2782;52.362;10.012;2023-02-24T04:47:12;1.58;;;0.55;;
5519;SDS011;2782;52.362;10.012;2023-02-24T04:48:13;1.50;;;0.47;;
5519;SDS011;2782;52.362;10.012;2023-02-24T04:49:14;1.63;;;0.30;;
5519;SDS011;2782;52.362;10.012;2023-02-24T04:50:17;1.70;;;0.43;;
5519;SDS011;2782;52.362;10.012;2023-02-24T04:51:22;0.80;;;0.40;;
5519;SDS011;2782;52.362;10.012;2023-02-24T04:52:23;0.70;;;0.30;;
5519;SDS011;2782;52.362;10.012;2023-02-24T04:53:25;0.80;;;0.30;;
5519;SDS011;2782;52.362;10.012;2023-02-24T04:54:27;0.80;;;0.47;;
5519;SDS011;2782;52.362;10.012;2023-02-24T04:55:30;2.15;;;0.40;;
5519;SDS011;2782;52.362;10.012;2023-02-24T04:56:32;1.35;;;0.40;;
5519;SDS011;2782;52.362;10.012;2023-02-24T04:57:34;1.08;;;0.40;;
5519;SDS011;2782;52.362;10.012;2023-02-24T04:58:37;0.68;;;0.30;;
5519;SDS011;2782;52.362;10.012;2023-02-24T04:59:40;1.15;;;0.50;;
5519;SDS011;2782;52.362;10.012;2023-02-24T05:00:41;0.70;;;0.30;;
5519;SDS011;2782;52.362;10.012;2023-02-24T05:01:42;1.35;;;0.40;;
5519;SDS011;2782;52.362;10.012;2023-02-24T05:02:43;1.05;;;0.32;;
5519;SDS011;2782;52.362;10.012;2023-02-24T05:03:47;0.60;;;0.40;;
5519;SDS011;2782;52.362;10.012;2023-02-24T05:04:48;0.60;;;0.30;;
5519;SDS011;2782;52.362;10.012;2023-02-24T05:05:49;1.30;;;0.30;;
5519;SDS011;2782;52.362;10.012;2023-02-24T05:06:55;1.27;;;0.40;;
5519;SDS011;2782;52.362;10.012;2023-02-24T05:07:57;0.60;;;0.30;;
5519;SDS011;2782;52.362;10.012;2023-02-24T05:09:01;1.50;;;0.40;;
5519;SDS011;2782;52.362;10.012;2023-02-24T05:10:14;0.80;;;0.30;;
5519;SDS011;2782;52.362;10.012;2023-02-24T05:11:17;1.95;;;0.40;;
5519;SDS011;2782;52.362;10.012;2023-02-24T05:12:18;1.07;;;0.50;;
5519;SDS011;2782;52.362;10.012;2023-02-24T05:13:20;1.75;;;0.47;;
5519;SDS011;2782;52.362;10.012;2023-02-24T05:14:26;1.23;;;0.40;;
5519;SDS011;2782;52.362;10.012;2023-02-24T05:15:28;1.05;;;0.50;;
5519;SDS011;2782;52.362;10.012;2023-02-24T05:16:30;0.68;;;0.30;;
5519;SDS011;2782;52.362;10.012;2023-02-24T05:17:31;0.65;;;0.30;;
5519;SDS011;2782;52.362;10.012;2023-02-24T05:18:32;1.23;;;0.30;;
5519;SDS011;2782;52.362;10.012;2023-02-24T05:19:35;1.13;;;0.20;;
5519;SDS011;2782;52.362;10.012;2023-02-24T05:20:55;0.90;;;0.28;;
5519;SDS011;2782;52.362;10.012;2023-02-24T05:22:14;1.15;;;0.30;;
5519;SDS011;2782;52.362;10.012;2023-02-24T05:23:16;0.90;;;0.30;;
5519;SDS011;2782;52.362;10.012;2023-02-24T05:24:18;0.57;;;0.30;;
5519;SDS011;2782;52.362;10.012;2023-02-24T05:25:21;0.88;;;0.40;;
5519;SDS011;2782;52.362;10.012;2023-02-24T05:26:24;0.60;;;0.45;;
5519;SDS011;2782;52.362;10.012;2023-02-24T05:27:26;0.70;;;0.25;;
5519;SDS011;2782;52.362;10.012;2023-02-24T05:28:27;0.80;;;0.30;;
5519;SDS011;2782;52.362;10.012;2023-02-24T05:29:31;1.27;;;0.40;;
5519;SDS011;2782;52.362;10.012;2023-02-24T05:30:33;1.02;;;0.40;;
5519;SDS011;2782;52.362;10.012;2023-02-24T05:31:36;0.57;;;0.28;;
5519;SDS011;2782;52.362;10.012;2023-02-24T05:32:37;0.95;;;0.40;;
5519;SDS011;2782;52.362;10.012;2023-02-24T05:33:39;1.13;;;0.40;;
5519;SDS011;2782;52.362;10.012;2023-02-24T05:34:41;0.60;;;0.20;;
5519;SDS011;2782;52.362;10.012;2023-02-24T05:35:43;0.50;;;0.30;;
5519;SDS011;2782;52.362;10.012;2023-02-24T05:36:44;0.50;;;0.20;;
5519;SDS011;2782;52.362;10.012;2023-02-24T05:37:48;1.52;;;0.40;;
5519;SDS011;2782;52.362;10.012;2023-02-24T05:38:49;2.53;;;0.30;;
5519;SDS011;2782;52.362;10.012;2023-02-24T05:39:54;1.25;;;0.35;;
5519;SDS011;2782;52.362;10.012;2023-02-24T05:41:02;0.70;;;0.30;;
5519;SDS011;2782;52.362;10.012;2023-02-24T05:42:06;1.27;;;0.40;;
5519;SDS011;2782;52.362;10.012;2023-02-24T05:43:08;0.63;;;0.40;;
5519;SDS011;2782;52.362;10.012;2023-02-24T05:44:11;0.80;;;0.20;;
5519;SDS011;2782;52.362;10.012;2023-02-24T05:45:14;0.57;;;0.22;;
5519;SDS011;2782;52.362;10.012;2023-02-24T05:46:15;0.70;;;0.30;;
5519;SDS011;2782;52.362;10.012;2023-02-24T05:47:18;0.90;;;0.40;;
5519;SDS011;2782;52.362;10.012;2023-02-24T05:48:22;0.50;;;0.22;;
5519;SDS011;2782;52.362;10.012;2023-02-24T05:49:24;0.60;;;0.20;;
5519;SDS011;2782;52.362;10.012;2023-02-24T05:50:28;1.05;;;0.35;;
5519;SDS011;2782;52.362;10.012;2023-02-24T05:51:31;0.60;;;0.30;;
5519;SDS011;2782;52.362;10.012;2023-02-24T05:52:34;0.60;;;0.20;;
5519;SDS011;2782;52.362;10.012;2023-02-24T05:53:36;0.60;;;0.30;;
5519;SDS011;2782;52.362;10.012;2023-02-24T05:54:40;0.50;;;0.20;;
5519;SDS011;2782;52.362;10.012;2023-02-24T05:55:44;0.85;;;0.38;;
5519;SDS011;2782;52.362;10.012;2023-02-24T05:56:46;0.60;;;0.30;;
5519;SDS011;2782;52.362;10.012;2023-02-24T05:57:49;1.30;;;0.60;;
5519;SDS011;2782;52.362;10.012;2023-02-24T05:58:50;0.80;;;0.30;;
5519;SDS011;2782;52.362;10.012;2023-02-24T06:00:01;0.70;;;0.30;;
5519;SDS011;2782;52.362;10.012;2023-02-24T06:01:11;0.50;;;0.20;;
5519;SDS011;2782;52.362;10.012;2023-02-24T06:02:16;1.00;;;0.30;;
5519;SDS011;2782;52.362;10.012;2023-02-24T06:03:26;0.90;;;0.43;;
5519;SDS011;2782;52.362;10.012;2023-02-24T06:04:30;1.75;;;0.35;;
5519;SDS011;2782;52.362;10.012;2023-02-24T06:05:38;3.13;;;0.60;;
5519;SDS011;2782;52.362;10.012;2023-02-24T06:06:41;1.67;;;0.40;;
5519;SDS011;2782;52.362;10.012;2023-02-24T06:07:42;2.77;;;0.50;;
5519;SDS011;2782;52.362;10.012;2023-02-24T06:08:46;0.80;;;0.52;;
5519;SDS011;2782;52.362;10.012;2023-02-24T06:09:49;1.30;;;0.60;;
5519;SDS011;2782;52.362;10.012;2023-02-24T06:10:52;4.75;;;0.45;;
5519;SDS011;2782;52.362;10.012;2023-02-24T06:11:54;1.83;;;0.30;;
5519;SDS011;2782;52.362;10.012;2023-02-24T06:12:56;1.02;;;0.30;;
5519;SDS011;2782;52.362;10.012;2023-02-24T06:13:57;1.73;;;0.40;;
5519;SDS011;2782;52.362;10.012;2023-02-24T06:14:58;2.05;;;0.70;;
5519;SDS011;2782;52.362;10.012;2023-02-24T06:16:01;1.75;;;0.30;;
5519;SDS011;2782;52.362;10.012;2023-02-24T06:17:02;0.95;;;0.40;;
5519;SDS011;2782;52.362;10.012;2023-02-24T06:18:04;0.75;;;0.30;;
5519;SDS011;2782;52.362;10.012;2023-02-24T06:19:06;1.70;;;0.52;;
5519;SDS011;2782;52.362;10.012;2023-02-24T06:20:09;2.40;;;0.43;;
5519;SDS011;2782;52.362;10.012;2023-02-24T06:21:14;2.17;;;0.40;;
5519;SDS011;2782;52.362;10.012;2023-02-24T06:22:16;1.00;;;0.60;;
5519;SDS011;2782;52.362;10.012;2023-02-24T06:23:18;1.70;;;0.40;;
5519;SDS011;2782;52.362;10.012;2023-02-24T06:24:20;0.50;;;0.30;;
5519;SDS011;2782;52.362;10.012;2023-02-24T06:25:21;3.57;;;0.30;;
5519;SDS011;2782;52.362;10.012;2023-02-24T06:26:24;1.15;;;0.50;;
5519;SDS011;2782;52.362;10.012;2023-02-24T06:27:32;1.80;;;0.40;;
5519;SDS011;2782;52.362;10.012;2023-02-24T06:28:35;1.88;;;0.40;;
5519;SDS011;2782;52.362;10.012;2023-02-24T06:29:36;0.90;;;0.50;;
5519;SDS011;2782;52.362;10.012;2023-02-24T06:30:38;1.35;;;0.30;;
5519;SDS011;2782;52.362;10.012;2023-02-24T06:31:38;1.47;;;0.50;;
5519;SDS011;2782;52.362;10.012;2023-02-24T06:32:40;2.60;;;0.40;;
5519;SDS011;2782;52.362;10.012;2023-02-24T06:33:41;0.80;;;0.30;;
5519;SDS011;2782;52.362;10.012;2023-02-24T06:34:42;2.65;;;0.40;;
5519;SDS011;2782;52.362;10.012;2023-02-24T06:35:43;6.43;;;0.30;;
5519;SDS011;2782;52.362;10.012;2023-02-24T06:36:45;2.33;;;0.75;;
5519;SDS011;2782;52.362;10.012;2023-02-24T06:37:47;1.73;;;0.30;;
5519;SDS011;2782;52.362;10.012;2023-02-24T06:38:49;1.48;;;0.52;;
5519;SDS011;2782;52.362;10.012;2023-02-24T06:39:51;7.18;;;0.73;;
5519;SDS011;2782;52.362;10.012;2023-02-24T06:40:55;1.65;;;0.43;;